Date,TemperatureHighF,TemperatureAvgF,TemperatureLowF,DewpointHighF,DewpointAvgF,DewpointLowF,HumidityHigh,HumidityAvg,HumidityLow,PressureMaxIn,PressureMinIn,WindSpeedMaxMPH,WindSpeedAvgMPH,GustSpeedMaxMPH,PrecipitationSumIn
2013-1-1,59,47,38,44,38,33,99,77,37,30.20,30.11,0,0,14,0.00
2013-1-2,58,45,35,41,37,33,94,77,50,30.15,30.06,6,0,14,0.00
2013-1-3,58,44,34,43,38,33,98,83,52,30.19,30.03,0,0,6,0.00
2013-1-4,59,46,37,46,40,37,100,83,54,30.16,30.11,0,0,1,0.00
2013-1-5,54,47,40,49,45,38,100,93,75,30.19,30.01,0,0,1,0.37
2013-1-6,57,50,43,50,48,43,100,93,74,30.09,30.00,0,0,5,0.02
2013-1-7,59,49,39,52,46,39,100,92,72,30.14,30.05,0,0,7,0.00
2013-1-8,59,48,40,52,46,40,100,92,70,30.15,30.08,0,0,9,0.00
2013-1-9,56,48,41,53,45,37,100,91,70,30.08,29.90,18,2,24,0.00
2013-1-10,55,46,39,40,37,33,94,72,44,30.05,29.95,15,5,18,0.00
2013-1-11,55,46,39,45,39,34,95,77,58,30.08,30.01,13,1,18,0.00
2013-1-12,53,43,34,40,33,25,96,71,36,30.12,30.03,0,0,1,0.00
2013-1-13,54,42,30,39,29,14,96,66,24,30.20,30.07,6,0,19,0.00
2013-1-14,53,46,36,38,25,15,90,47,27,30.30,30.11,10,0,19,0.00
2013-1-15,57,42,33,38,34,32,97,76,43,30.36,30.25,0,0,10,0.00
2013-1-16,60,44,33,42,36,32,96,78,46,30.30,30.18,0,0,1,0.00
2013-1-17,64,45,34,44,38,33,98,79,45,30.19,30.09,8,0,10,0.00
2013-1-18,64,55,42,45,40,37,83,59,44,30.14,30.09,4,0,37,0.00
2013-1-19,66,47,35,44,38,33,95,74,43,30.15,30.06,0,0,8,0.00
2013-1-20,64,48,37,43,38,34,93,69,40,30.14,30.07,6,0,13,0.00
2013-1-21,68,49,35,45,40,33,94,74,37,30.08,29.99,5,0,16,0.00
2013-1-22,66,51,38,48,42,35,94,74,44,30.07,29.98,0,0,14,0.00
2013-1-23,56,53,50,54,49,44,100,87,67,30.06,29.90,0,0,18,0.20
2013-1-24,61,55,52,57,54,52,100,96,84,30.13,30.01,0,0,5,0.00
2013-1-25,67,58,51,59,55,51,100,90,70,30.13,30.02,10,0,12,0.00
2013-1-26,59,53,44,54,47,40,100,80,54,30.02,29.94,18,4,24,0.00
2013-1-27,60,49,41,44,40,32,90,73,37,30.13,29.96,13,2,15,0.00
2013-1-28,62,51,43,47,42,39,87,73,45,30.18,30.03,13,3,18,0.00
2013-1-29,63,52,44,49,43,41,88,73,50,30.22,30.16,8,1,23,0.00
2013-2-5,60,53,48,52,49,45,97,84,71,30.04,29.96,14,3,24,0.00
2013-2-6,61,50,39,48,44,38,100,82,53,30.10,30.02,9,1,19,0.00
2013-2-7,58,50,42,51,44,35,100,83,44,30.07,29.93,11,1,15,0.10
2013-2-8,60,49,40,45,42,35,100,79,47,29.95,29.87,12,2,18,0.00
2013-2-9,63,51,40,40,35,29,84,56,31,30.05,29.90,9,1,37,0.00
2013-2-10,63,48,35,47,38,32,92,70,41,30.06,30.01,11,1,19,0.00
2013-2-11,69,56,43,46,36,29,88,50,25,30.18,30.02,6,0,37,0.00
2013-2-12,64,52,39,50,45,38,100,81,45,30.29,30.15,5,0,9,0.00
2013-2-13,65,51,39,53,46,39,100,85,47,30.23,30.17,8,1,13,0.00
2013-2-14,72,55,41,53,46,41,100,75,37,30.19,30.12,5,0,32,0.00
2013-2-15,72,57,44,49,46,42,97,72,41,30.24,30.13,6,0,10,0.00
2013-2-16,71,56,45,51,47,42,96,77,35,30.18,30.00,10,1,16,0.00
2013-2-17,66,54,43,50,47,42,100,79,48,30.02,29.94,10,0,28,0.00
2013-2-18,58,50,41,50,44,41,100,81,59,30.01,29.91,11,2,23,0.00
2013-2-19,54,48,41,48,42,36,97,79,52,29.91,29.73,19,2,27,0.14
2013-2-20,63,50,40,45,40,35,90,70,43,29.98,29.77,16,4,20,0.00
2013-2-21,65,53,42,46,40,33,88,64,33,30.08,29.94,13,2,22,0.00
2013-2-22,66,53,39,49,44,38,97,75,39,30.14,30.06,18,2,20,0.00
2013-2-23,63,54,48,51,42,32,96,66,35,30.14,30.05,15,5,21,0.00
2013-2-24,67,55,44,40,32,24,81,44,20,30.18,30.08,11,1,16,0.00
2013-2-25,69,53,41,49,44,39,97,74,41,30.19,30.12,13,1,17,0.00
2013-2-26,61,47,40,43,38,31,87,73,34,30.14,30.09,0,0,3,0.00
2013-2-27,71,58,40,51,44,37,93,64,32,30.28,30.13,13,1,37,0.00
2013-2-28,70,64,53,57,54,50,92,73,59,30.33,30.27,10,5,13,0.00
2013-3-1,75,64,46,58,53,46,100,68,43,30.31,30.21,10,3,10,0.00
2013-3-2,72,61,50,58,52,48,96,76,52,30.21,30.04,10,0,37,0.00
2013-3-3,70,60,53,54,52,48,95,78,46,30.04,30.00,9,2,37,0.00
2013-3-11,73,58,41,52,47,40,98,71,35,30.16,30.07,9,0,16,0.00
2013-3-12,76,58,46,57,51,46,100,81,44,30.10,30.05,11,2,16,0.00
2013-3-13,80,61,46,57,52,45,100,76,43,30.11,30.06,6,0,24,0.00
2013-3-14,72,60,50,57,51,46,96,75,41,30.11,30.04,10,2,22,0.00
2013-3-15,76,60,49,54,50,44,94,73,44,30.07,30.00,13,2,37,0.00
2013-3-16,74,59,45,54,48,44,99,72,40,30.05,29.98,21,4,27,0.00
2013-3-17,73,58,49,47,44,40,85,63,33,30.08,30.01,12,2,20,0.00
2013-3-18,67,56,45,53,47,42,94,75,52,30.05,29.97,13,1,27,0.00
2013-3-19,66,56,47,51,47,41,93,74,50,30.07,29.99,9,1,14,0.09
2013-3-20,62,56,51,58,53,46,100,92,82,30.05,29.96,7,0,15,0.13
2013-3-21,67,54,43,49,46,41,96,75,47,30.04,29.98,11,2,17,0.00
2013-3-22,69,55,45,44,40,33,85,61,27,30.03,29.96,14,3,29,0.01
2013-3-23,72,57,44,46,40,31,82,56,29,30.05,29.99,7,0,38,0.00
2013-3-24,72,56,45,52,46,42,94,72,37,30.03,29.97,7,1,16,0.00
2013-3-25,61,52,43,49,46,41,97,81,59,29.98,29.92,12,3,18,0.00
2013-3-26,68,54,46,52,48,44,96,79,50,29.96,29.90,11,2,18,0.00
2013-3-27,65,57,49,56,52,47,93,84,63,30.02,29.89,8,0,36,0.00
2013-3-28,69,60,53,57,54,51,97,82,57,30.06,29.98,5,0,11,0.00
2013-3-29,78,61,50,58,54,50,100,80,40,30.05,29.99,5,0,15,0.00
2013-3-30,70,61,55,58,54,49,96,81,50,30.04,29.97,10,0,24,0.06
2013-3-31,66,59,54,59,56,53,100,88,67,30.05,29.99,11,1,20,0.14
2013-4-1,66,59,53,60,56,52,100,90,67,30.16,30.02,10,1,14,0.08
2013-4-2,70,56,49,59,53,49,100,90,65,30.12,30.04,11,3,18,0.00
2013-4-3,76,58,48,58,52,48,100,86,47,30.06,29.97,10,1,19,0.00
2013-4-4,63,58,53,59,56,52,100,94,82,30.07,29.95,11,1,19,0.58
2013-4-5,65,59,55,57,54,51,98,85,63,30.14,30.06,11,2,27,0.01
2013-4-6,66,58,55,58,55,52,97,89,69,30.14,30.08,14,1,27,0.00
2013-4-7,67,58,53,57,52,48,99,81,59,30.11,29.81,18,2,29,0.14
2013-4-8,72,58,49,48,41,26,85,58,18,29.99,29.75,21,13,29,0.00
2013-4-9,81,64,52,50,41,28,71,47,15,30.12,29.98,15,3,19,0.00
2013-4-10,85,68,59,55,51,46,77,56,34,30.15,30.01,18,6,26,0.00
2013-4-11,77,62,51,53,50,46,92,67,37,30.03,29.85,17,4,25,0.00
2013-4-12,76,59,46,57,49,44,94,72,42,29.92,29.83,13,2,17,0.00
2013-4-13,70,59,49,51,46,42,88,64,45,29.90,29.83,16,3,23,0.00
2013-4-14,72,57,48,48,42,34,91,60,30,29.90,29.84,26,5,28,0.00
2013-4-15,61,53,45,48,42,34,95,68,38,29.90,29.81,27,9,32,0.00
2013-4-16,69,57,45,44,36,28,71,48,24,30.11,29.89,16,4,22,0.00
2013-4-17,72,64,56,44,33,26,56,33,18,30.20,30.11,10,2,24,0.00
2013-4-18,78,65,54,46,41,32,73,44,26,30.24,30.13,1,0,3,0.00
2013-4-19,81,64,48,55,49,44,91,62,33,30.20,30.09,0,0,0,0.00
2013-4-20,83,67,57,51,47,44,70,51,27,30.09,29.98,0,0,0,0.00
2013-4-21,88,67,50,54,48,43,90,57,23,30.02,29.93,0,0,0,0.00
2013-4-22,92,70,53,56,50,43,85,53,19,29.97,29.84,0,0,0,0.00
2013-4-23,84,71,50,50,34,22,95,31,13,30.00,29.92,0,0,0,0.00
2013-4-24,69,56,48,54,50,48,100,82,56,29.94,29.84,0,0,0,0.00
2013-4-25,65,58,53,53,51,49,89,79,62,30.09,29.93,0,0,0,0.00
2013-4-26,71,57,52,55,51,49,93,81,56,30.18,30.07,0,0,0,0.01
2013-4-27,77,58,49,58,52,49,100,82,52,30.17,30.04,0,0,0,0.00
2013-4-28,86,65,47,60,52,46,99,69,34,30.04,29.91,0,0,0,0.00
2013-4-29,89,71,55,58,52,49,85,56,27,29.92,29.81,0,0,0,0.00
2013-4-30,84,70,56,50,43,14,74,44,9,29.94,29.80,0,0,0,0.00
2013-5-1,89,75,62,43,25,16,27,16,9,30.10,29.91,0,0,0,0.00
2013-5-2,94,73,50,51,33,23,69,29,10,30.14,30.06,0,0,0,0.00
2013-5-3,91,72,52,47,39,30,61,33,18,30.10,29.81,0,0,0,0.00
2013-5-4,84,68,51,57,47,39,84,51,26,29.80,29.63,0,0,0,0.00
2013-5-5,67,61,56,53,51,50,86,70,56,29.84,29.68,0,0,0,0.00
2013-5-6,72,64,54,55,52,48,90,67,47,29.99,29.83,0,0,0,0.00
2013-5-7,74,63,55,56,54,49,93,73,42,30.05,29.96,0,0,0,0.00
2013-5-8,67,58,54,54,52,50,95,83,62,30.13,30.03,0,0,0,0.00
2013-5-9,68,58,52,54,51,49,92,78,57,30.17,30.07,0,0,0,0.00
2013-5-10,74,59,53,59,53,50,96,82,55,30.16,30.08,0,0,0,0.00
2013-5-11,83,62,51,61,54,49,100,78,43,30.12,30.04,0,0,0,0.00
2013-5-12,80,64,49,61,52,44,97,71,32,30.10,30.05,0,0,0,0.00
2013-5-13,82,63,48,60,53,46,98,72,44,30.05,29.94,0,0,0,0.00
2013-5-14,75,63,53,57,51,46,87,66,38,30.03,29.90,0,0,0,0.00
2013-5-15,74,61,51,51,47,43,85,64,35,30.04,29.96,0,0,0,0.00
2013-5-16,72,62,55,56,51,46,87,70,43,30.02,29.94,0,0,0,0.00
2013-5-17,69,59,49,50,47,43,93,67,42,30.04,29.94,0,0,0,0.00
2013-5-18,78,63,49,54,49,46,90,64,34,30.10,30.02,0,0,0,0.00
2013-5-19,85,69,55,49,46,39,75,49,23,30.09,29.99,0,0,0,0.01
2013-5-20,89,72,55,51,46,36,79,44,16,30.02,29.93,0,0,0,0.00
2013-5-21,72,61,53,49,46,40,81,60,38,29.99,29.90,0,0,0,0.00
2013-5-22,68,58,48,44,36,24,74,47,21,29.97,29.92,0,0,0,0.00
2013-5-23,71,58,45,47,43,40,87,60,34,30.00,29.89,0,0,0,0.00
2013-5-24,72,59,46,47,44,41,86,61,35,30.00,29.92,0,0,0,0.00
2013-5-25,71,58,49,51,47,43,85,68,37,30.03,29.93,0,0,0,0.00
2013-5-26,73,63,54,54,52,49,95,70,46,30.09,29.99,0,0,0,0.00
2013-5-27,65,61,54,59,56,50,98,83,67,30.10,29.99,0,0,0,0.04
2013-5-28,74,64,58,62,56,50,100,77,52,30.00,29.94,0,0,1,0.04
2013-5-29,75,64,55,57,52,49,88,67,46,29.96,29.91,0,0,0,0.00
2013-5-30,79,64,50,49,47,45,89,59,32,30.01,29.92,0,0,0,0.00
2013-5-31,90,70,52,54,47,41,78,49,19,30.02,29.95,0,0,0,0.00
2013-6-1,92,73,55,57,50,46,81,47,25,29.96,29.88,0,0,0,0.00
2013-6-2,77,65,55,58,52,48,89,64,46,29.88,29.67,0,0,0,0.00
2013-6-3,75,63,52,55,53,50,95,73,47,29.91,29.72,0,0,0,0.00
2013-6-4,71,62,56,54,53,52,91,75,53,30.01,29.86,0,0,0,0.00
2013-6-5,75,61,55,58,53,51,92,78,52,30.00,29.95,0,0,0,0.00
2013-6-6,79,61,53,59,54,51,96,78,46,29.96,29.86,0,0,0,0.00
2013-6-7,93,68,54,62,57,53,97,72,28,29.90,29.82,0,0,0,0.00
2013-6-8,87,70,58,62,58,54,90,68,40,29.86,29.75,0,0,0,0.00
2013-6-9,71,64,60,57,56,54,88,76,59,29.92,29.81,0,0,0,0.00
2013-6-10,67,62,58,58,55,53,97,78,64,29.98,29.82,0,0,0,0.00
2013-6-11,78,66,59,58,54,48,85,65,41,29.99,29.91,0,0,0,0.00
2013-6-12,82,66,53,55,48,45,78,55,29,29.97,29.92,9,0,37,0.00
2013-6-13,82,66,51,52,46,41,79,52,25,30.07,29.97,0,0,0,0.00
2013-6-14,85,71,59,54,47,40,70,45,22,30.01,29.81,0,0,0,0.00
2013-6-15,75,61,50,57,51,46,90,71,44,29.99,29.80,0,0,0,0.00
2013-6-16,83,66,53,52,50,48,87,59,33,30.05,29.97,0,0,0,0.00
2013-6-17,77,65,54,57,53,49,91,68,46,30.10,30.03,0,0,0,0.00
2013-6-18,71,63,55,55,51,47,91,69,43,30.05,29.99,0,0,0,0.00
2013-6-19,76,64,52,51,48,45,87,60,34,30.08,29.97,0,0,0,0.00
2013-6-20,80,66,54,52,47,41,77,55,26,30.04,29.96,0,0,0,0.00
2013-6-21,456,20,51,100,81,47,86,29,1,30.01,29.93,0,0,0,0.00
2013-6-22,456,0,200,100,100,100,1,1,1,29.98,29.86,0,0,0,0.00
2013-6-23,456,0,200,100,100,100,1,1,1,29.91,29.84,0,0,0,0.00
2013-6-24,456,0,200,100,100,100,1,1,1,29.94,29.83,0,0,0,0.00
2013-6-25,456,45,62,100,74,61,99,67,1,30.02,29.89,0,0,0,0.08
2013-6-26,82,70,62,65,62,59,100,79,50,30.10,30.00,0,0,0,0.00
2013-6-27,88,72,58,62,58,53,100,66,33,30.10,30.01,0,0,0,0.01
2013-6-28,99,78,62,64,58,52,88,55,24,30.02,29.93,0,0,0,0.00
2013-6-29,99,79,60,62,56,51,82,47,21,29.95,29.86,0,0,0,0.00
2013-6-30,85,71,61,60,55,52,74,57,42,29.91,29.85,0,0,0,0.00
2013-7-1,91,75,58,62,60,53,87,61,36,29.90,29.80,0,0,0,0.00
2013-7-2,85,70,62,62,59,55,87,70,41,30.00,29.87,0,0,0,0.00
2013-7-3,92,73,59,62,58,56,92,64,36,29.97,29.79,0,0,0,0.00
2013-7-4,94,75,63,62,57,45,76,56,26,29.84,29.72,0,0,0,0.00
2013-7-5,68,62,55,57,53,46,89,72,51,29.82,29.76,0,0,0,0.00
2013-7-6,71,60,53,56,53,50,91,79,59,29.87,29.79,0,0,0,0.00
2013-7-7,76,61,53,58,53,50,97,78,49,29.89,29.81,0,0,0,0.00
2013-7-8,75,60,55,58,53,52,95,79,51,30.01,29.86,0,0,0,0.00
2013-7-9,91,68,51,57,52,49,100,65,28,30.04,29.93,0,0,0,0.00
2013-7-10,80,61,52,58,53,49,99,77,39,30.01,29.91,0,0,0,0.00
2013-7-11,70,58,51,57,52,49,94,82,54,29.98,29.92,0,0,0,0.00
2013-7-12,74,60,54,57,53,50,91,78,48,29.96,29.87,0,0,0,0.00
2013-7-13,79,62,49,56,52,46,93,72,42,30.03,29.90,0,0,0,0.00
2013-7-14,77,60,52,57,53,50,97,79,44,30.01,29.94,0,0,0,0.00
2013-7-15,74,59,51,55,52,49,94,79,48,29.95,29.87,0,0,0,0.00
2013-7-16,69,61,56,56,53,51,89,78,59,30.06,29.91,0,0,0,0.00
2013-7-17,79,63,55,59,55,52,93,77,44,30.10,30.01,0,0,0,0.00
2013-7-18,83,63,53,59,54,52,100,78,38,30.07,29.96,0,0,0,0.00
2013-7-19,78,62,52,60,55,50,97,77,49,29.98,29.86,0,0,0,0.00
2013-7-20,60,55,53,55,52,50,94,89,82,29.91,29.86,0,0,0,0.00
2013-7-30,76,65,55,58,54,52,92,70,50,30.12,30.09,0,0,0,0.00
2013-7-31,78,63,55,59,53,50,93,73,42,30.10,30.00,0,0,0,0.00
2013-8-1,77,64,53,58,53,50,95,69,41,30.08,30.00,0,0,0,0.00
2013-8-2,75,63,52,58,54,48,90,72,47,30.02,29.92,0,0,0,0.00
2013-8-3,78,61,54,57,54,51,94,79,45,30.03,29.95,0,0,0,0.00
2013-8-4,73,59,54,57,53,51,92,82,52,30.05,29.98,0,0,0,0.00
2013-8-5,72,60,54,57,53,50,93,82,51,30.04,29.98,0,0,0,0.00
2013-8-6,75,61,54,58,54,51,94,79,49,30.09,29.99,0,0,0,0.00
2013-8-7,72,63,57,58,56,55,96,80,56,30.13,30.06,0,0,0,0.00
2013-8-8,74,62,56,59,55,52,93,79,51,30.06,30.00,0,0,0,0.00
2013-8-9,74,62,56,58,55,53,92,79,51,30.03,29.95,0,0,0,0.00
2013-8-10,78,64,57,60,56,54,92,79,47,30.08,30.01,0,0,0,0.00
2013-8-11,78,63,56,60,56,54,96,81,46,30.05,29.97,0,0,0,0.00
2013-8-12,74,62,56,60,55,52,96,81,48,30.03,29.95,0,0,0,0.00
2013-8-13,90,68,54,60,54,48,97,68,29,30.02,29.92,0,0,0,0.00
2013-8-14,87,67,54,60,54,48,84,66,29,29.99,29.92,0,0,0,0.00
2013-8-15,85,70,61,65,62,59,95,77,48,30.05,29.94,0,0,0,0.00
2013-8-16,87,69,59,64,59,54,97,75,38,30.10,30.01,0,0,0,0.00
2013-8-17,84,67,55,62,58,54,96,75,38,30.04,29.95,0,0,0,0.00
2013-8-18,92,72,57,62,59,55,98,69,30,29.97,29.89,0,0,0,0.00
2013-8-19,91,72,61,63,58,49,91,66,29,30.01,29.92,0,0,0,0.00
2013-8-20,78,66,61,61,59,56,93,78,52,30.00,29.92,0,0,0,0.00
2013-8-21,79,64,59,58,56,54,89,75,44,29.98,29.90,0,0,0,0.00
2013-8-22,76,63,57,56,54,53,93,75,48,30.00,29.92,0,0,0,0.03
2013-8-23,77,64,58,60,56,54,90,76,49,29.95,29.82,0,0,0,0.00
2013-8-24,81,65,55,60,56,53,96,75,43,29.92,29.84,0,0,0,0.00
2013-8-25,81,69,63,64,60,58,90,76,47,30.00,29.92,0,0,0,0.02
2013-8-26,79,66,60,61,56,49,93,72,40,30.04,29.96,0,0,0,0.00
2013-8-27,84,65,53,59,55,50,92,73,39,29.98,29.91,0,0,0,0.00
2013-8-28,84,68,58,63,60,57,100,80,46,29.99,29.89,0,0,0,0.00
2013-8-29,83,69,62,64,61,59,96,78,45,30.13,29.97,0,0,0,0.00
2013-8-30,91,73,61,63,60,55,95,68,30,30.10,29.94,0,0,0,0.00
2013-8-31,83,67,58,62,57,53,88,71,38,30.01,29.92,0,0,0,0.00
2013-9-1,82,66,56,62,57,53,94,74,38,29.97,29.92,0,0,0,0.00
2013-9-2,82,70,62,63,61,58,91,76,46,30.00,29.92,0,0,0,0.00
2013-9-3,79,67,57,59,55,46,91,68,34,29.99,29.93,0,0,0,0.00
2013-9-4,79,67,57,60,56,54,94,71,44,30.02,29.95,0,0,0,0.00
2013-9-5,80,68,58,58,55,51,92,66,38,30.02,29.95,0,0,0,0.00
2013-9-6,92,72,53,56,50,45,89,52,21,30.01,29.85,0,0,0,0.00
2013-9-7,95,74,57,61,49,42,78,46,17,29.90,29.84,0,0,0,0.00
2013-9-8,92,70,54,60,54,49,95,62,28,29.90,29.81,0,0,0,0.00
2013-9-9,90,69,55,60,54,51,90,63,29,29.92,29.83,0,0,0,0.00
2013-9-10,79,65,57,61,58,56,96,80,51,29.99,29.82,0,0,0,0.00
2013-9-11,76,67,64,60,58,57,85,74,55,30.02,29.97,0,0,0,0.00
2013-9-12,79,66,59,63,59,56,94,81,50,30.03,29.98,0,0,0,0.00
2013-9-13,80,63,57,60,56,54,96,80,42,29.97,29.87,0,0,0,0.00
2013-9-14,76,63,56,59,55,54,94,79,52,29.90,29.84,0,0,0,0.00
2013-9-15,79,65,54,61,56,52,97,77,43,29.98,29.83,0,0,0,0.00
2013-9-16,80,66,53,61,57,52,100,76,41,29.93,29.82,0,0,0,0.00
2013-9-17,69,58,53,56,54,51,96,86,58,29.89,29.84,0,0,0,0.00
2013-9-18,83,71,57,50,46,43,73,43,26,29.95,29.88,0,0,0,0.00
2013-9-19,88,66,50,54,47,41,86,57,21,29.91,29.82,0,0,0,0.00
2013-9-20,75,59,51,59,51,46,88,77,57,29.85,29.80,0,0,0,0.00
2013-9-23,81,69,54,59,57,49,90,66,47,30.02,29.92,0,0,0,0.00
2013-9-24,77,64,57,58,52,48,89,66,41,30.00,29.89,0,0,0,0.00
2013-9-25,71,61,52,49,46,40,83,60,34,29.92,29.84,0,0,0,0.00
2013-9-26,77,63,51,45,41,34,68,47,23,30.03,29.85,0,0,0,0.00
2013-9-27,80,67,55,43,37,32,61,35,21,30.09,30.02,0,0,0,0.00
2013-9-28,82,62,47,57,46,35,86,62,19,30.09,30.00,0,0,0,0.00
2013-9-29,74,64,56,63,58,54,97,82,60,30.10,30.04,0,0,0,0.00
2013-9-30,71,66,63,64,63,61,96,90,73,30.07,30.00,0,0,0,0.01
2013-10-4,66,66,66,26,26,26,22,22,22,30.02,30.02,0,0,0,0.00
2013-10-7,81,68,51,45,38,32,57,36,18,30.00,29.90,0,0,0,0.00
2013-10-8,72,59,46,49,44,40,85,60,37,29.92,29.77,0,0,0,0.00
2013-10-9,71,60,48,47,42,36,85,55,32,29.80,29.66,0,0,0,0.00
2013-10-10,65,58,49,50,44,36,87,62,36,30.01,29.79,0,0,0,0.00
2013-10-11,68,53,44,50,47,43,100,82,46,30.07,30.00,0,0,0,0.00
2013-10-12,68,53,41,52,46,40,100,79,37,29.99,29.92,0,0,0,0.00
2013-10-13,74,60,46,50,44,38,92,58,28,30.05,29.91,0,0,0,0.00
2013-10-14,77,59,41,46,39,33,88,52,24,30.10,29.98,0,0,0,0.00
2013-10-15,80,61,42,41,34,28,74,41,16,30.07,29.97,0,0,0,0.00
2013-10-16,80,61,42,38,33,30,65,38,18,30.11,30.01,0,0,0,0.00
2013-10-17,79,61,45,44,35,28,65,40,19,30.07,30.01,0,0,0,0.00
2013-10-18,79,59,43,48,42,30,94,59,24,30.12,29.99,0,0,0,0.00
2013-10-19,82,60,43,47,41,37,91,55,21,30.08,29.99,0,0,0,0.00
2013-10-20,78,56,42,49,45,41,97,71,32,30.02,29.92,0,0,0,0.00
2013-10-21,68,54,46,52,48,45,100,84,54,30.00,29.93,0,0,0,0.00
2013-10-22,77,54,42,52,47,42,100,81,33,30.04,29.96,0,0,0,0.00
2013-10-23,69,52,43,53,48,43,100,88,50,29.97,29.92,0,0,0,0.00
2013-10-24,64,52,47,51,48,46,100,85,54,30.09,29.94,0,0,0,0.00
2013-10-25,51,48,44,48,46,43,99,94,90,30.07,30.05,0,0,0,0.00
2013-10-28,61,54,44,48,45,42,94,74,54,29.82,29.64,0,0,0,0.00
2013-10-29,61,52,42,48,46,40,97,80,59,30.04,29.82,0,0,0,0.00
2013-10-30,66,52,38,51,44,38,100,79,47,30.12,30.00,0,0,0,0.00
2013-10-31,70,55,39,48,42,37,94,67,36,30.17,30.07,0,0,0,0.00
2013-11-1,76,58,42,48,42,37,87,60,30,30.16,30.06,0,0,0,0.00
2013-11-2,72,56,43,53,45,37,85,68,33,30.06,29.96,0,0,0,0.00
2013-11-3,66,55,44,41,35,26,72,49,22,30.04,29.93,0,0,0,0.00
2013-11-4,73,58,46,39,31,20,68,41,14,30.08,29.89,0,0,0,0.00
2013-11-5,72,60,48,42,35,30,63,41,24,30.22,30.04,0,0,0,0.00
2013-11-6,73,58,45,42,38,34,70,49,25,30.25,30.16,0,0,0,0.00
2013-11-7,74,60,49,52,41,36,90,53,27,30.17,30.09,0,0,0,0.00
2013-11-8,74,55,41,54,46,37,99,78,37,30.09,29.99,0,0,0,0.00
2013-11-9,72,54,39,48,44,37,98,74,39,30.07,29.96,0,0,0,0.00
2013-11-10,65,53,44,52,48,42,100,84,55,30.13,30.02,0,0,0,0.00
2013-11-11,66,54,44,51,48,43,100,81,51,30.16,30.06,0,0,0,0.00
2013-11-12,72,61,54,53,48,42,89,65,35,30.24,30.13,0,0,0,0.00
2013-11-13,77,57,43,54,50,42,99,79,42,30.23,30.10,0,0,0,0.00
2013-11-14,64,54,46,55,48,40,100,84,57,30.10,29.83,0,0,0,0.00
2013-11-15,66,54,43,42,40,35,86,61,32,29.85,29.79,0,0,0,0.00
2013-11-16,65,52,41,50,44,36,95,76,41,29.92,29.76,0,0,0,0.00
2013-11-17,61,50,41,50,46,40,100,84,62,30.08,29.90,0,0,0,0.00
2013-11-18,58,50,37,49,45,36,99,83,64,30.11,30.03,0,0,0,0.00
2013-11-19,57,54,50,57,53,46,100,96,82,30.07,29.91,0,0,0,0.75
2013-11-20,61,56,51,58,55,50,100,97,87,29.94,29.87,0,0,0,0.25
2013-11-21,64,57,51,51,35,19,100,55,19,30.02,29.89,0,0,0,0.00
2013-11-22,74,64,55,28,14,9,36,14,9,30.01,29.93,0,0,0,0.00
2013-11-23,65,53,43,37,32,26,64,45,26,30.07,29.97,0,0,0,0.00
2013-11-24,63,48,35,44,37,32,88,69,43,30.19,30.06,0,0,0,0.00
2013-11-25,63,48,37,46,41,36,99,80,51,30.29,30.18,0,0,0,0.00
2013-11-26,62,49,38,45,41,37,98,75,43,30.22,30.02,0,0,0,0.00
2013-11-27,67,53,41,47,42,35,86,69,41,30.02,29.89,0,0,0,0.00
2013-11-28,69,54,41,46,41,37,91,66,34,30.06,29.87,0,0,0,0.00
2013-11-29,68,52,39,46,42,36,94,71,39,30.17,30.04,0,0,0,0.00
2013-11-30,65,52,40,48,43,38,95,75,45,30.21,30.14,0,0,0,0.00
2013-12-1,70,53,40,49,44,39,98,73,41,30.33,30.18,0,0,0,0.00
2013-12-2,66,52,39,56,47,38,99,85,51,30.19,29.93,0,0,0,0.00
2013-12-3,57,51,42,54,34,25,94,55,35,29.95,29.82,0,0,0,0.00
2013-12-4,52,42,29,32,24,15,80,51,24,30.05,29.89,0,0,0,0.00
2013-12-5,51,37,25,31,22,12,86,59,22,30.13,29.97,0,0,0,0.00
2013-12-6,50,39,26,48,33,23,99,81,48,30.12,29.86,0,0,0,0.29
2013-12-7,48,42,32,46,31,24,97,69,39,30.13,29.86,0,0,0,0.00
2013-12-8,46,35,28,31,26,22,91,72,41,30.23,30.10,0,0,0,0.00
2013-12-9,51,36,24,31,24,19,90,65,28,30.31,30.16,0,0,0,0.00
2013-12-10,51,37,26,33,27,21,88,70,45,30.26,30.09,0,0,0,0.00
2013-12-11,58,42,29,37,31,25,88,69,37,30.17,30.06,0,0,0,0.00
2013-12-12,58,43,31,39,33,27,93,70,42,30.20,30.10,0,0,0,0.00
2013-12-13,59,43,29,42,36,29,100,79,43,30.24,30.13,0,0,0,0.00
2013-12-14,59,44,30,42,36,29,98,77,48,30.31,30.20,0,0,0,0.00
2013-12-15,61,45,33,41,36,31,94,75,43,30.27,30.17,0,0,0,0.00
2013-12-16,65,48,37,42,38,33,89,70,38,30.16,30.09,0,0,0,0.00
2013-12-17,63,48,38,43,39,33,92,73,44,30.14,29.99,0,0,0,0.00
2013-12-18,63,48,37,48,42,34,92,80,43,30.00,29.72,0,0,0,0.00
2013-12-19,63,53,45,44,30,14,85,48,21,29.89,29.67,0,0,0,0.00
2013-12-20,64,50,40,39,27,13,67,41,22,30.01,29.86,0,0,0,0.00
2013-12-21,67,50,36,49,42,32,96,76,51,30.05,29.93,0,0,0,0.00
2013-12-22,62,48,36,44,39,35,100,73,42,30.24,30.05,0,0,0,0.00
2013-12-23,62,48,35,42,38,32,93,72,45,30.33,30.21,0,0,0,0.00
2013-12-24,67,49,37,44,39,35,94,72,41,30.27,30.19,0,0,0,0.00
2013-12-25,64,48,34,44,39,32,95,74,41,30.23,30.15,0,0,0,0.00
2013-12-26,65,47,34,43,36,32,94,69,35,30.21,30.13,0,0,0,0.00
2013-12-27,60,46,34,40,35,30,86,68,40,30.16,30.03,0,0,0,0.00
2013-12-28,66,45,32,40,33,29,93,68,30,30.05,30.00,0,0,0,0.00
2013-12-29,66,50,37,36,31,25,79,49,25,30.14,30.00,0,0,0,0.00
2013-12-30,62,46,34,40,35,29,85,68,42,30.20,30.08,0,0,0,0.00
2013-12-31,61,47,37,43,38,34,98,74,38,30.17,30.10,0,0,0,0.00
2014-1-1,63,46,31,41,35,30,98,70,35,30.13,30.07,0,0,0,0.00
2014-1-2,63,49,36,40,36,31,86,64,39,30.11,30.02,0,0,0,0.00